CPA225 EGLL-EDDF
Flight info
| Callsign | CPA225 |
|---|---|
| Flight time | N/A |
| Altitude | 25000 |
| Route | BPK6J BPK Q295 MATCH DCT REDFA DCT TACHA DCT NOLRU DCT DIXAT DIXAT1D |
| Aircraft | A359/H-SDE1E2E3FGHIJ2J3J4J5M1RWXYZ/LB1D1 |
Departure
| Time | 2026-05-05 06:30 |
|---|---|
| Airport | London Heathrow Airport (EGLL) |
Arrival
| Time | N/A |
|---|---|
| Airport | Frankfurt Main Airport (EDDF) |
| Time | Latitude | Longitude | Altitude | Speed | Heading |
|---|---|---|---|---|---|
| 2026-05-05 05:58 | 51.47393 | -0.46593 | 95 ft | 0 kts | 119° |
| 2026-05-05 06:14 | 51.47398 | -0.46609 | 93 ft | 3 kts | 119° |
| 2026-05-05 06:15 | 51.47407 | -0.46635 | 92 ft | 3 kts | 119° |
| 2026-05-05 06:15 | 51.47416 | -0.46660 | 92 ft | 3 kts | 119° |
| 2026-05-05 06:15 | 51.47424 | -0.46684 | 94 ft | 2 kts | 119° |
| 2026-05-05 06:15 | 51.47434 | -0.46706 | 93 ft | 2 kts | 137° |
| 2026-05-05 06:16 | 51.47445 | -0.46723 | 92 ft | 3 kts | 139° |
| 2026-05-05 06:16 | 51.47460 | -0.46738 | 94 ft | 0 kts | 175° |
| 2026-05-05 06:21 | 51.47458 | -0.46738 | 94 ft | 3 kts | 177° |
| 2026-05-05 06:21 | 51.47400 | -0.46744 | 91 ft | 10 kts | 184° |
| 2026-05-05 06:21 | 51.47305 | -0.46753 | 92 ft | 17 kts | 183° |
| 2026-05-05 06:21 | 51.47278 | -0.46755 | 94 ft | 2 kts | 183° |
| 2026-05-05 06:22 | 51.47275 | -0.46755 | 95 ft | 3 kts | 183° |
| 2026-05-05 06:22 | 51.47244 | -0.46749 | 96 ft | 19 kts | 162° |
| 2026-05-05 06:22 | 51.47179 | -0.46708 | 96 ft | 27 kts | 163° |
| 2026-05-05 06:23 | 51.47079 | -0.46736 | 94 ft | 0 kts | 201° |
| 2026-05-05 06:23 | 51.47067 | -0.46730 | 91 ft | 10 kts | 166° |
| 2026-05-05 06:23 | 51.46997 | -0.46661 | 96 ft | 13 kts | 144° |
| 2026-05-05 06:24 | 51.46910 | -0.46567 | 95 ft | 17 kts | 146° |
| 2026-05-05 06:24 | 51.46808 | -0.46467 | 94 ft | 16 kts | 159° |
| 2026-05-05 06:24 | 51.46762 | -0.46488 | 95 ft | 3 kts | 240° |
| 2026-05-05 06:24 | 51.46753 | -0.46549 | 93 ft | 7 kts | 259° |
| 2026-05-05 06:25 | 51.46748 | -0.46649 | 95 ft | 11 kts | 267° |
| 2026-05-05 06:25 | 51.46745 | -0.46788 | 95 ft | 14 kts | 269° |
| 2026-05-05 06:25 | 51.46754 | -0.46964 | 94 ft | 17 kts | 277° |
| 2026-05-05 06:25 | 51.46748 | -0.47163 | 94 ft | 19 kts | 268° |
| 2026-05-05 06:26 | 51.46748 | -0.47389 | 94 ft | 22 kts | 272° |
| 2026-05-05 06:26 | 51.46745 | -0.47645 | 94 ft | 24 kts | 270° |
| 2026-05-05 06:26 | 51.46744 | -0.47918 | 93 ft | 17 kts | 269° |
| 2026-05-05 06:26 | 51.46744 | -0.48067 | 93 ft | 2 kts | 269° |
| 2026-05-05 06:27 | 51.46743 | -0.48138 | 91 ft | 9 kts | 265° |
| 2026-05-05 06:27 | 51.46744 | -0.48253 | 91 ft | 12 kts | 272° |
| 2026-05-05 06:28 | 51.46745 | -0.48409 | 94 ft | 16 kts | 269° |
| 2026-05-05 06:28 | 51.46739 | -0.48576 | 92 ft | 11 kts | 267° |
| 2026-05-05 06:28 | 51.46730 | -0.48690 | 95 ft | 6 kts | 242° |
| 2026-05-05 06:28 | 51.46689 | -0.48727 | 96 ft | 11 kts | 197° |
| 2026-05-05 06:29 | 51.46611 | -0.48761 | 95 ft | 14 kts | 198° |
| 2026-05-05 06:29 | 51.46531 | -0.48772 | 94 ft | 8 kts | 165° |
| 2026-05-05 06:29 | 51.46488 | -0.48717 | 96 ft | 8 kts | 122° |
| 2026-05-05 06:29 | 51.46478 | -0.48542 | 94 ft | 46 kts | 90° |
| 2026-05-05 06:30 | 51.46482 | -0.47540 | 90 ft | 133 kts | 90° |
| 2026-05-05 06:30 | 51.46458 | -0.45663 | 364 ft | 194 kts | 92° |
| 2026-05-05 06:30 | 51.46457 | -0.43385 | 1317 ft | 209 kts | 79° |
| 2026-05-05 06:30 | 51.47121 | -0.41213 | 2373 ft | 226 kts | 49° |
| 2026-05-05 06:31 | 51.48155 | -0.39340 | 3863 ft | 222 kts | 46° |
| 2026-05-05 06:31 | 51.49204 | -0.37470 | 5067 ft | 232 kts | 46° |
| 2026-05-05 06:31 | 51.50333 | -0.35411 | 5710 ft | 262 kts | 47° |
| 2026-05-05 06:31 | 51.51546 | -0.32935 | 5941 ft | 302 kts | 57° |
| 2026-05-05 06:32 | 51.52416 | -0.29732 | 5987 ft | 311 kts | 69° |
| 2026-05-05 06:32 | 51.53060 | -0.26623 | 6017 ft | 276 kts | 70° |
| 2026-05-05 06:32 | 51.53664 | -0.23857 | 6005 ft | 253 kts | 65° |
| 2026-05-05 06:32 | 51.54653 | -0.21486 | 6004 ft | 263 kts | 42° |
| 2026-05-05 06:33 | 51.56223 | -0.19919 | 6367 ft | 270 kts | 23° |
| 2026-05-05 06:33 | 51.57943 | -0.18708 | 7144 ft | 269 kts | 22° |
| 2026-05-05 06:33 | 51.59703 | -0.17654 | 7867 ft | 273 kts | 16° |
| 2026-05-05 06:33 | 51.61543 | -0.16781 | 8563 ft | 277 kts | 15° |
| 2026-05-05 06:34 | 51.63409 | -0.15931 | 9299 ft | 281 kts | 15° |
| 2026-05-05 06:34 | 51.65305 | -0.15067 | 10004 ft | 285 kts | 15° |
| 2026-05-05 06:34 | 51.67252 | -0.14180 | 10481 ft | 297 kts | 15° |
| 2026-05-05 06:34 | 51.69281 | -0.13248 | 10908 ft | 310 kts | 15° |
| 2026-05-05 06:35 | 51.71391 | -0.12228 | 11345 ft | 323 kts | 19° |
| 2026-05-05 06:35 | 51.73377 | -0.10506 | 11735 ft | 336 kts | 38° |
| 2026-05-05 06:35 | 51.74876 | -0.07566 | 12157 ft | 347 kts | 63° |
| 2026-05-05 06:35 | 51.75645 | -0.03855 | 12754 ft | 351 kts | 77° |
| 2026-05-05 06:36 | 51.76092 | 0.00100 | 13445 ft | 354 kts | 82° |
| 2026-05-05 06:36 | 51.76390 | 0.04059 | 14065 ft | 358 kts | 84° |
| 2026-05-05 06:36 | 51.76643 | 0.08027 | 14594 ft | 362 kts | 84° |
| 2026-05-05 06:36 | 51.76902 | 0.12083 | 15137 ft | 365 kts | 84° |
| 2026-05-05 06:37 | 51.77185 | 0.16175 | 15658 ft | 369 kts | 84° |
| 2026-05-05 06:37 | 51.77494 | 0.20312 | 16198 ft | 373 kts | 84° |
| 2026-05-05 06:37 | 51.77721 | 0.24489 | 16739 ft | 375 kts | 90° |
| 2026-05-05 06:37 | 51.77651 | 0.28721 | 17270 ft | 378 kts | 94° |
| 2026-05-05 06:38 | 51.77502 | 0.32973 | 17842 ft | 381 kts | 95° |
| 2026-05-05 06:38 | 51.77328 | 0.37259 | 18405 ft | 385 kts | 95° |
| 2026-05-05 06:38 | 51.77141 | 0.41591 | 18896 ft | 388 kts | 95° |
| 2026-05-05 06:38 | 51.76945 | 0.46009 | 19434 ft | 391 kts | 96° |
| 2026-05-05 06:39 | 51.76745 | 0.50402 | 19935 ft | 395 kts | 96° |
| 2026-05-05 06:39 | 51.76543 | 0.54785 | 20371 ft | 399 kts | 96° |
| 2026-05-05 06:39 | 51.76334 | 0.59263 | 20898 ft | 402 kts | 96° |
| 2026-05-05 06:39 | 51.76122 | 0.63774 | 21421 ft | 404 kts | 96° |
| 2026-05-05 06:40 | 51.75905 | 0.68317 | 21957 ft | 408 kts | 96° |
| 2026-05-05 06:40 | 51.75685 | 0.72896 | 22470 ft | 411 kts | 96° |
| 2026-05-05 06:40 | 51.75461 | 0.77509 | 23008 ft | 414 kts | 96° |
| 2026-05-05 06:40 | 51.75234 | 0.82162 | 23540 ft | 417 kts | 97° |
| 2026-05-05 06:41 | 51.75003 | 0.86842 | 23994 ft | 421 kts | 97° |
| 2026-05-05 06:41 | 51.74768 | 0.91568 | 24413 ft | 425 kts | 97° |
| 2026-05-05 06:41 | 51.74528 | 0.96343 | 24812 ft | 429 kts | 97° |
| 2026-05-05 06:41 | 51.74291 | 1.01160 | 24970 ft | 435 kts | 97° |
| 2026-05-05 06:42 | 51.74040 | 1.06092 | 24998 ft | 449 kts | 97° |
| 2026-05-05 06:42 | 51.73775 | 1.11187 | 24988 ft | 460 kts | 97° |
| 2026-05-05 06:42 | 51.73515 | 1.16339 | 24992 ft | 461 kts | 97° |
| 2026-05-05 06:42 | 51.73254 | 1.21480 | 24994 ft | 460 kts | 97° |
| 2026-05-05 06:43 | 51.72988 | 1.26627 | 24992 ft | 460 kts | 97° |
| 2026-05-05 06:43 | 51.72718 | 1.31764 | 24994 ft | 460 kts | 97° |
| 2026-05-05 06:43 | 51.72444 | 1.36900 | 24990 ft | 460 kts | 97° |
| 2026-05-05 06:43 | 51.72167 | 1.42037 | 24989 ft | 460 kts | 97° |
| 2026-05-05 06:44 | 51.71889 | 1.47166 | 24986 ft | 460 kts | 97° |
| 2026-05-05 06:44 | 51.71606 | 1.52311 | 24989 ft | 461 kts | 97° |
| 2026-05-05 06:44 | 51.71322 | 1.57453 | 24988 ft | 461 kts | 97° |
| 2026-05-05 06:44 | 51.71035 | 1.62603 | 24988 ft | 461 kts | 97° |
| 2026-05-05 06:45 | 51.70745 | 1.67751 | 24986 ft | 461 kts | 97° |
| 2026-05-05 06:45 | 51.70453 | 1.72907 | 24988 ft | 461 kts | 97° |
| 2026-05-05 06:45 | 51.70160 | 1.78052 | 24985 ft | 461 kts | 97° |
| 2026-05-05 06:45 | 51.69864 | 1.83191 | 24977 ft | 461 kts | 97° |
| 2026-05-05 06:46 | 51.69566 | 1.88334 | 24980 ft | 461 kts | 97° |
| 2026-05-05 06:46 | 51.69268 | 1.93420 | 24979 ft | 461 kts | 97° |
| 2026-05-05 06:46 | 51.68966 | 1.98562 | 24972 ft | 461 kts | 97° |
| 2026-05-05 06:46 | 51.68661 | 2.03706 | 24974 ft | 461 kts | 97° |
| 2026-05-05 06:47 | 51.68353 | 2.08851 | 24977 ft | 462 kts | 97° |
| 2026-05-05 06:47 | 51.68043 | 2.13996 | 24971 ft | 462 kts | 97° |
| 2026-05-05 06:47 | 51.67730 | 2.19152 | 24971 ft | 462 kts | 97° |
| 2026-05-05 06:47 | 51.67416 | 2.24293 | 24971 ft | 462 kts | 97° |
| 2026-05-05 06:48 | 51.67100 | 2.29439 | 24971 ft | 461 kts | 97° |
| 2026-05-05 06:48 | 51.66781 | 2.34583 | 24966 ft | 461 kts | 97° |
| 2026-05-05 06:48 | 51.66460 | 2.39726 | 24966 ft | 461 kts | 97° |
| 2026-05-05 06:48 | 51.66137 | 2.44860 | 24963 ft | 462 kts | 98° |
| 2026-05-05 06:49 | 51.65811 | 2.50008 | 24970 ft | 462 kts | 98° |
| 2026-05-05 06:49 | 51.65483 | 2.55148 | 24965 ft | 462 kts | 98° |
| 2026-05-05 06:49 | 51.65152 | 2.60303 | 24965 ft | 462 kts | 98° |
| 2026-05-05 06:49 | 51.64820 | 2.65448 | 24966 ft | 462 kts | 98° |
| 2026-05-05 06:50 | 51.64484 | 2.70601 | 24964 ft | 462 kts | 98° |
| 2026-05-05 06:50 | 51.64262 | 2.73999 | 24964 ft | 462 kts | 98° |
| 2026-05-05 06:50 | 51.63923 | 2.79143 | 24961 ft | 462 kts | 98° |
| 2026-05-05 06:50 | 51.63581 | 2.84292 | 24966 ft | 462 kts | 98° |
| 2026-05-05 06:51 | 51.63238 | 2.89435 | 24964 ft | 462 kts | 98° |
| 2026-05-05 06:51 | 51.62892 | 2.94589 | 24957 ft | 463 kts | 98° |
| 2026-05-05 06:51 | 51.62543 | 2.99746 | 24963 ft | 464 kts | 98° |
| 2026-05-05 06:51 | 51.62191 | 3.04907 | 24959 ft | 465 kts | 98° |
| 2026-05-05 06:52 | 51.61837 | 3.10073 | 24952 ft | 464 kts | 98° |
| 2026-05-05 06:52 | 51.61481 | 3.15230 | 24953 ft | 464 kts | 98° |
| 2026-05-05 06:52 | 51.61123 | 3.20395 | 24952 ft | 464 kts | 98° |
| 2026-05-05 06:52 | 51.60762 | 3.25551 | 24958 ft | 464 kts | 98° |
| 2026-05-05 06:53 | 51.60399 | 3.30714 | 24951 ft | 464 kts | 98° |
| 2026-05-05 06:53 | 51.60034 | 3.35871 | 24945 ft | 464 kts | 98° |
| 2026-05-05 06:53 | 51.59666 | 3.41034 | 24948 ft | 465 kts | 98° |
| 2026-05-05 06:53 | 51.59296 | 3.46194 | 24946 ft | 466 kts | 98° |
| 2026-05-05 06:54 | 51.58922 | 3.51380 | 24943 ft | 466 kts | 98° |
| 2026-05-05 06:54 | 51.58546 | 3.56554 | 24946 ft | 466 kts | 98° |
| 2026-05-05 06:54 | 51.58169 | 3.61721 | 24938 ft | 466 kts | 98° |
| 2026-05-05 06:54 | 51.57789 | 3.66890 | 24935 ft | 466 kts | 98° |
| 2026-05-05 06:55 | 51.57407 | 3.72063 | 24938 ft | 466 kts | 98° |
| 2026-05-05 06:55 | 51.57021 | 3.77242 | 24936 ft | 467 kts | 98° |
| 2026-05-05 06:55 | 51.56626 | 3.82473 | 24934 ft | 479 kts | 98° |
| 2026-05-05 06:55 | 51.56213 | 3.87853 | 24926 ft | 489 kts | 98° |
| 2026-05-05 06:56 | 51.55801 | 3.93298 | 24930 ft | 492 kts | 98° |
| 2026-05-05 06:56 | 51.55389 | 3.98760 | 24933 ft | 493 kts | 98° |
| 2026-05-05 06:56 | 51.54972 | 4.04225 | 24932 ft | 492 kts | 98° |
| 2026-05-05 06:56 | 51.54552 | 4.09685 | 24937 ft | 492 kts | 98° |
| 2026-05-05 06:57 | 51.54130 | 4.15133 | 24935 ft | 492 kts | 98° |
| 2026-05-05 06:57 | 51.53709 | 4.20527 | 24942 ft | 492 kts | 98° |
| 2026-05-05 06:57 | 51.53280 | 4.25976 | 24937 ft | 492 kts | 98° |
| 2026-05-05 06:57 | 51.52849 | 4.31430 | 24937 ft | 492 kts | 98° |
| 2026-05-05 06:58 | 51.52414 | 4.36886 | 24940 ft | 492 kts | 98° |
| 2026-05-05 06:58 | 51.51978 | 4.42340 | 24944 ft | 492 kts | 99° |
| 2026-05-05 06:58 | 51.51539 | 4.47786 | 24936 ft | 492 kts | 99° |
| 2026-05-05 06:58 | 51.51098 | 4.53227 | 24941 ft | 492 kts | 99° |
| 2026-05-05 06:59 | 51.50653 | 4.58682 | 24932 ft | 492 kts | 99° |
| 2026-05-05 06:59 | 51.50208 | 4.64117 | 24934 ft | 492 kts | 99° |
| 2026-05-05 06:59 | 51.49757 | 4.69575 | 24939 ft | 492 kts | 99° |
| 2026-05-05 06:59 | 51.49306 | 4.75011 | 24934 ft | 492 kts | 99° |
| 2026-05-05 07:00 | 51.48852 | 4.80452 | 24932 ft | 492 kts | 99° |
| 2026-05-05 07:00 | 51.48396 | 4.85888 | 24938 ft | 492 kts | 99° |
| 2026-05-05 07:00 | 51.47936 | 4.91337 | 24938 ft | 493 kts | 99° |
| 2026-05-05 07:00 | 51.47473 | 4.96791 | 24938 ft | 493 kts | 99° |
| 2026-05-05 07:01 | 51.47009 | 5.02232 | 24939 ft | 493 kts | 99° |
| 2026-05-05 07:01 | 51.46541 | 5.07678 | 24935 ft | 493 kts | 99° |
| 2026-05-05 07:01 | 51.46071 | 5.13123 | 24929 ft | 492 kts | 99° |
| 2026-05-05 07:01 | 51.45599 | 5.18549 | 24936 ft | 491 kts | 99° |
| 2026-05-05 07:02 | 51.45127 | 5.23958 | 24939 ft | 490 kts | 99° |
| 2026-05-05 07:02 | 51.44654 | 5.29356 | 24935 ft | 489 kts | 99° |
| 2026-05-05 07:02 | 51.44177 | 5.34761 | 24938 ft | 490 kts | 99° |
| 2026-05-05 07:02 | 51.43696 | 5.40180 | 24938 ft | 491 kts | 99° |
| 2026-05-05 07:03 | 51.43213 | 5.45594 | 24937 ft | 491 kts | 99° |
| 2026-05-05 07:03 | 51.42727 | 5.51013 | 24938 ft | 491 kts | 99° |
| 2026-05-05 07:03 | 51.42240 | 5.56416 | 24936 ft | 491 kts | 99° |
| 2026-05-05 07:03 | 51.41750 | 5.61824 | 24936 ft | 491 kts | 99° |
| 2026-05-05 07:04 | 51.41257 | 5.67233 | 24929 ft | 491 kts | 99° |
| 2026-05-05 07:04 | 51.40762 | 5.72641 | 24929 ft | 491 kts | 99° |
| 2026-05-05 07:04 | 51.40264 | 5.78044 | 24920 ft | 491 kts | 99° |
| 2026-05-05 07:04 | 51.39763 | 5.83460 | 24922 ft | 493 kts | 99° |
| 2026-05-05 07:05 | 51.39257 | 5.88899 | 24914 ft | 493 kts | 99° |
| 2026-05-05 07:05 | 51.38749 | 5.94329 | 24912 ft | 494 kts | 99° |
| 2026-05-05 07:05 | 51.38239 | 5.99759 | 24914 ft | 493 kts | 99° |
| 2026-05-05 07:05 | 51.37726 | 6.05193 | 24911 ft | 494 kts | 100° |
| 2026-05-05 07:06 | 51.37210 | 6.10625 | 24909 ft | 493 kts | 100° |
| 2026-05-05 07:06 | 51.36692 | 6.16048 | 24909 ft | 493 kts | 100° |
| 2026-05-05 07:06 | 51.36171 | 6.21477 | 24909 ft | 493 kts | 100° |
| 2026-05-05 07:06 | 51.35649 | 6.26897 | 24907 ft | 494 kts | 100° |
| 2026-05-05 07:07 | 51.35122 | 6.32330 | 24905 ft | 495 kts | 100° |
| 2026-05-05 07:07 | 51.34592 | 6.37771 | 24906 ft | 495 kts | 100° |
| 2026-05-05 07:07 | 51.34060 | 6.43208 | 24904 ft | 495 kts | 100° |
| 2026-05-05 07:07 | 51.33526 | 6.48642 | 24903 ft | 495 kts | 100° |
| 2026-05-05 07:08 | 51.32989 | 6.54077 | 24895 ft | 495 kts | 100° |
| 2026-05-05 07:08 | 51.32456 | 6.59437 | 24910 ft | 495 kts | 100° |
| 2026-05-05 07:08 | 51.31914 | 6.64870 | 24913 ft | 495 kts | 100° |
| 2026-05-05 07:08 | 51.31362 | 6.70374 | 24907 ft | 495 kts | 100° |
| 2026-05-05 07:09 | 51.30821 | 6.75739 | 24910 ft | 496 kts | 100° |
| 2026-05-05 07:09 | 51.30270 | 6.81178 | 24911 ft | 497 kts | 100° |
| 2026-05-05 07:09 | 51.29716 | 6.86624 | 24911 ft | 497 kts | 101° |
| 2026-05-05 07:09 | 51.29159 | 6.92075 | 24910 ft | 497 kts | 101° |
| 2026-05-05 07:10 | 51.28599 | 6.97521 | 24910 ft | 497 kts | 101° |
| 2026-05-05 07:10 | 51.28032 | 7.02962 | 24904 ft | 497 kts | 101° |
| 2026-05-05 07:10 | 51.27159 | 7.08280 | 24908 ft | 494 kts | 112° |
| 2026-05-05 07:10 | 51.25584 | 7.13117 | 24900 ft | 490 kts | 127° |
| 2026-05-05 07:11 | 51.23351 | 7.17168 | 24892 ft | 485 kts | 141° |
| 2026-05-05 07:11 | 51.20610 | 7.20232 | 24899 ft | 479 kts | 155° |
| 2026-05-05 07:11 | 51.17604 | 7.22490 | 24892 ft | 477 kts | 158° |
| 2026-05-05 07:11 | 51.14608 | 7.24772 | 24898 ft | 478 kts | 157° |
| 2026-05-05 07:12 | 51.11622 | 7.27099 | 24905 ft | 478 kts | 156° |
| 2026-05-05 07:12 | 51.08662 | 7.29472 | 24903 ft | 472 kts | 155° |
| 2026-05-05 07:12 | 51.05793 | 7.31847 | 24911 ft | 457 kts | 155° |
| 2026-05-05 07:12 | 51.02996 | 7.34169 | 24911 ft | 451 kts | 155° |
| 2026-05-05 07:13 | 51.00211 | 7.36471 | 24905 ft | 451 kts | 155° |
| 2026-05-05 07:13 | 50.97425 | 7.38765 | 24906 ft | 451 kts | 155° |
| 2026-05-05 07:13 | 50.94657 | 7.41041 | 24659 ft | 444 kts | 155° |
| 2026-05-05 07:13 | 50.91917 | 7.43290 | 23767 ft | 445 kts | 154° |
| 2026-05-05 07:14 | 50.89146 | 7.45558 | 22562 ft | 452 kts | 154° |
| 2026-05-05 07:14 | 50.86356 | 7.47842 | 21758 ft | 449 kts | 154° |
| 2026-05-05 07:14 | 50.83609 | 7.50090 | 21111 ft | 441 kts | 154° |
| 2026-05-05 07:14 | 50.80908 | 7.52296 | 20482 ft | 433 kts | 155° |
| 2026-05-05 07:15 | 50.78251 | 7.54460 | 19873 ft | 426 kts | 155° |
| 2026-05-05 07:15 | 50.75631 | 7.56593 | 19280 ft | 421 kts | 155° |
| 2026-05-05 07:15 | 50.73041 | 7.58699 | 18677 ft | 417 kts | 155° |
| 2026-05-05 07:15 | 50.70473 | 7.60784 | 18036 ft | 413 kts | 155° |
| 2026-05-05 07:16 | 50.67928 | 7.62853 | 17466 ft | 409 kts | 155° |
| 2026-05-05 07:16 | 50.65395 | 7.64904 | 16978 ft | 410 kts | 155° |
| 2026-05-05 07:16 | 50.62859 | 7.66952 | 16495 ft | 408 kts | 155° |
| 2026-05-05 07:16 | 50.60347 | 7.68980 | 15972 ft | 403 kts | 155° |
| 2026-05-05 07:17 | 50.57865 | 7.70989 | 15525 ft | 399 kts | 155° |
| 2026-05-05 07:17 | 50.55409 | 7.72968 | 15071 ft | 395 kts | 155° |
| 2026-05-05 07:17 | 50.52965 | 7.74931 | 14616 ft | 392 kts | 155° |
| 2026-05-05 07:17 | 50.50547 | 7.76872 | 14175 ft | 389 kts | 155° |
| 2026-05-05 07:18 | 50.48175 | 7.78775 | 13754 ft | 386 kts | 155° |
| 2026-05-05 07:18 | 50.45761 | 7.80710 | 13260 ft | 383 kts | 155° |
| 2026-05-05 07:18 | 50.43464 | 7.82698 | 12823 ft | 382 kts | 149° |
| 2026-05-05 07:18 | 50.41329 | 7.85170 | 12469 ft | 381 kts | 144° |
| 2026-05-05 07:19 | 50.39263 | 7.87743 | 12093 ft | 378 kts | 143° |
| 2026-05-05 07:19 | 50.37207 | 7.90309 | 11749 ft | 377 kts | 143° |
| 2026-05-05 07:19 | 50.35161 | 7.92855 | 11394 ft | 375 kts | 143° |
| 2026-05-05 07:19 | 50.33121 | 7.95389 | 11030 ft | 373 kts | 143° |
| 2026-05-05 07:20 | 50.31097 | 7.97908 | 10633 ft | 371 kts | 143° |
| 2026-05-05 07:20 | 50.29100 | 8.00462 | 10232 ft | 370 kts | 142° |
| 2026-05-05 07:20 | 50.28398 | 8.01384 | 10091 ft | 370 kts | 141° |
| 2026-05-05 07:20 | 50.26667 | 8.03736 | 9666 ft | 371 kts | 140° |
| 2026-05-05 07:21 | 50.26121 | 8.04507 | 9511 ft | 372 kts | 139° |